Skip Navigation Links
NOAA logo - Click to go to the NOAA homepage
NOAA's National Weather Service
Alaska Aviation Weather Unit
  NWS logo - Click to go to the NWS homepage
Left Navbar Graphic     21 AKDT = 05 GMT

   
NOAA is celebrating 200 years of science, service, and stewardship. Visit the NOAA 200th celebration Web site to learn more.
USA.gov is the U.S. Government's official Web portal to all Federal, state and local government Web resources and services.
Facebook
NWS on Facebook

Important Change Regarding the AAWU Web Presence

 

Over the last several months, the AAWU has been working to navigate its webpages to a nationally supported server. Security, as well as other needs, have necessitated the change.  In the process, we have made an effort to enhance the functionality of our website, as well as some of our products. As of June 27, 2017, aawu.arh.noaa.gov will be discontinued. The new AAWU web address is weather.gov/aawu. It is now live and will run in-parallel with the old site until it is discontinued. Please send any feedback or questions regarding the new webpages to nws.ar.aawu.webauthors@noaa.gov.  Thank you for your patience during this time of transition.
AAWU Home :: Display TAF Add Bookmark
METAR PASX 242356Z AUTO 26005KT 10SM CLR 19/09 A3009 RMK AO2 SLP198
 6//// T01890089 10189 20128 401890022 58015 PNO $=

METAR PASX 250056Z AUTO 27008KT 10SM CLR 19/09 A3007 RMK AO2 SLP194
     T01940089 PNO $=

METAR PASX 250156Z AUTO 28009KT 10SM CLR 20/09 A3006 RMK AO2 SLP189
     T02000089 PNO $=

METAR PASX 250256Z AUTO 26009KT 10SM CLR 19/09 A3005 RMK AO2 SLP186
 6//// T01890089 56012 PNO $=

METAR PASX 250356Z AUTO 28008KT 10SM CLR 18/08 A3004 RMK AO2 SLP183
     T01830083 PNO $=

METAR PASX 250456Z AUTO 25007KT 10SM CLR 19/09 A3003 RMK AO2 SLP177
     T01890089 PNO $=


NOAA's National Weather Service
Alaska Aviation Weather Unit
6930 Sand Lake Road
Anchorage, AK 99502-1845
Disclaimer
Credits
Glossary
Privacy Policy
About Us
Career Opportunities
Contact AAWU Internet Services Site last modified: April, 17th 2012